Share

Wewahitchka, FL (32465)

Chipola River @ Land's Landing (KFLWEWAH5) Elev 62 ft | 30.10 °N, 85.19 °W | Change Station
Active Advisory: Flood Warning

Current weather conditions updated 2 minutes ago

Overcast
Overcast
57.0 °F
Feels Like 57.0 °F
N
0.0
Wind Variable Wind from NE
Sunrise 6:08 AM
Sunset 7:11 PM
Moon Waning Gibbous

Today is forecast to be Warmer than yesterday.

Pressure 30.10 in
Visibility 12.0 miles
Clouds Overcast 1400 ft
Dew Point 55 °F
Humidity 94%
Rainfall 0.00 in
Snow Depth Not available.
UV 0 out of 16
Pollen 9.00 out of 12
Air Quality Not available.
Flu Activity Sporadic
SPECI KTDR 201111Z AUTO 04011KT 12SM OVC014 14/12 A3010 RMK AO2

More Conditions Fewer Conditions

Pressure 30.10 in
Visibility 12.0 miles
Clouds Overcast 1400 ft
Dew Point 55 °F
Humidity 94%
Rainfall 0.00 in
Snow Depth Not available.
UV 0 out of 16
Pollen 9.00 out of 12
Air Quality Not available.
Flu Activity Sporadic
SPECI KTDR 201111Z AUTO 04011KT 12SM OVC014 14/12 A3010 RMK AO2

More Conditions Fewer Conditions

10-Day Weather Forecast

Almanac

Astronomy

Apr. 20, 2014 Rise Set
Actual Time 6:08 AM CDT 7:11 PM CDT
Civil Twilight 5:43 AM CDT 7:35 PM CDT
Nautical Twilight 5:14 AM CDT 8:05 PM CDT
Astronomical Twilight 4:44 AM CDT 8:35 PM CDT
Moon No Moon Rise 10:36 AM CDT
Length of Visible Light 13h 52m
Length of Day
13h 02m
Tomorrow will be 1m 40s longer.
Waning Gibbous, 71% of the Moon is Illuminated
Today
Waning Gibbous
Apr 22
Last Quarter
Apr 29
New
May 6
First Quarter
May 14
Full

Today's Extremes

State Highs State Lows

Community

  • Easter Greetings
    Easter Greetings
  • Sunny day at the coast-Cape Arago Lighthouse
    Sunny day at the coast-Cape Arago Lighthouse
  • Cherry Blossoms
    Cherry Blossoms
  • White-Crowned Sparrow
    White-Crowned Sparrow
  • New Day
    New Day

WunderPhotos

Upload Photos

1,703,141 photos uploaded!

Nearby

Snow Depth

Station Depth Elevation
No new snow has been reported.

Coastal Water Temperatures

Place Temperature
Panama City, FL 66.0 °F
Panama City Beach, FL 66.0 °F
Apalachicola, FL 64.0 °F

Earthquake Activity

City Distance Mag. Time & Date
No recent earthquake activity has been reported nearby.
Minimum magnitude displayed is 2.5.

Nearby Weather Stations

Station Location Temp. Dew Point Humidity Wind Precip. Elev Updated Type
Chipola River @ Land's Landing, Wewahitchka, FL 57.0 °F 55 °F 94% NE  at  0.0 mph - / hr 62 ft 6:19 AM CDT Normal
West Arm Creek, Wewahitchka, FL 56.4 °F 53 °F 89% NNE  at  0.0 mph 0.00 in / hr 49 ft 6:15 AM CDT Normal
RAWS SUMATRA FL, Sumatra, FL 57 °F 53 °F 85% NE  at  3 mph 0.00 in / hr 26 ft 6:04 AM EDT MADIS
White City, Wewahitchka, FL 56.8 °F 54 °F 92% NE  at  2.7 mph - / hr 23 ft 6:12 AM CDT Normal

Show More Stations Show Fewer Stations

What do you think?

We're not finished. Please let us know what you like, what you don't like, and what you are still missing.